• Join FlightAware (Why Join?)
  • Login
  • US Flag 
02:08PM EDT


 

Airport Tracker/Info


-or-


 

Live Flight TrackerFlight Track Log ✈ EJA929 ✈ 05-Sep-2013 ✈ KRKD - KLGA

Flight Track Log - Related Links

Times and Time Zones

All times are in EDT time to prevent confusion due to time zone crossing. See the EJA929 flight status page for this flight to view local times or setup timezone preferences in your user account.

Time Position Orientation Groundspeed Altitude Reporting Facility
EDT Latitude Longitude Course Direction KTS MPH feet Rate Location/Type
01:21PM 44.0206 -69.0778 238° Southwest 214 246 3,000  Level Boston Center
01:22PM 43.9894 -69.1528 240° Southwest 221 254 6,900 3,600 Climbing Boston Center
01:23PM 43.9578 -69.2383 243° Southwest 237 273 10,400 3,060 Climbing Boston Center
01:24PM 43.9261 -69.3503 249° West 306 352 13,300 2,460 Climbing Boston Center
01:25PM 43.9011 -69.4600 252° West 305 351 15,500 2,100 Climbing Boston Center
01:26PM 43.8700 -69.5825 251° West 335 386 17,600 1,860 Climbing Boston Center
01:27PM 43.7594 -69.8164 238° Southwest  Level FlightAware Approximate
01:27PM 43.8403 -69.7053 251° West 345 397 19,400  Level Boston Center
01:28PM 43.8075 -69.8364 251° West 357 411 21,300 2,520 Climbing Boston Center
01:29PM 43.7750 -69.9736 252° West 370 426 24,600 2,760 Climbing Boston Center
01:31PM 43.7419 -70.1022 250° West 358 412 27,100 2,100 Climbing Boston Center
01:32PM 43.7094 -70.2344 251° West 358 412 29,000 1,380 Climbing Boston Center
01:33PM 43.6733 -70.3725 250° West 370 426 30,000 480 Climbing Boston Center
01:34PM 43.6339 -70.5325 251° West 425 489 30,000  Level Boston Center
01:35PM 43.5858 -70.7250 251° West 438 504 30,000  Level Boston Center
01:36PM 43.5492 -70.8681 251° West 446 513 30,000  Level Boston Center
01:37PM 43.5122 -71.0303 253° West 447 514 30,000  Level Boston Center
01:38PM 43.4694 -71.1886 250° West 443 510 30,000  Level Boston Center
01:39PM 43.4189 -71.3767 250° West 439 505 30,000  Level Boston Center
01:41PM 43.3336 -71.6917 250° West 440 506 30,000  Level Boston Center
01:42PM 43.2911 -71.8494 250° West 438 504 30,000  Level Boston Center
01:43PM 43.2481 -72.0100 250° West 447 514 30,000  Level Boston Center
01:44PM 43.2050 -72.1683 250° West 447 514 30,000  Level Boston Center
01:45PM 43.1619 -72.3261 250° West 444 511 30,000  Level Boston Center
01:46PM 43.1125 -72.5131 250° West 442 509 30,000  Level Boston Center
01:47PM 43.0706 -72.6575 248° West 443 510 30,000 -420 Level Boston Center
01:48PM 43.0269 -72.8158 249° West 444 511 29,200 -1,140 Descending Boston Center
01:49PM 42.9856 -72.9681 250° West 432 497 27,800 -1,560 Descending Boston Center
01:50PM 42.9356 -73.1239 246° West 429 494 26,000 -1,380 Descending Boston Center
01:51PM 42.8394 -73.2172 215° Southwest 438 504 25,000 -900 Descending Boston Center
01:52PM 42.7189 -73.2617 195° South 453 521 24,200 -1,140 Descending Boston Center
01:53PM 42.5986 -73.3050 195° South 455 524 22,700 -1,620 Descending Boston Center
01:54PM 42.4578 -73.3556 195° South 446 513 20,900 -1,680 Descending Boston Center
01:55PM 42.3422 -73.3978 195° South 438 504 19,400 -1,380 Descending Boston Center
01:56PM 42.2292 -73.4389 195° South 428 493 18,100 -720 Descending Boston Center
01:57PM 42.1167 -73.4817 196° South 423 487 18,000 -300 Descending Boston Center
01:58PM 41.9922 -73.5358 198° South 419 482 17,600 -1,200 Descending Boston Center
01:59PM 41.8811 -73.5803 197° South 416 479 15,700 -1,920 Descending Boston Center
02:00PM 41.7681 -73.6272 197° South 397 457 13,800 -1,680 Descending Boston Center
02:01PM 41.6686 -73.6675 197° South 378 435 12,300 -1,440 Descending Boston Center
02:02PM 41.5697 -73.7078 197° South 371 427 10,800 -1,140 Descending Boston Center
02:03PM 41.4908 -73.7392 197° South 298 343 10,000 -1,140 Descending Boston Center
02:04PM 41.4164 -73.7697 197° South 263 303 8,600 -840 Descending Boston Center
02:06PM 41.3167 -73.7833 186° South 289 333 8,100 -360 Descending New York TRACON
02:07PM 41.2500 -73.7167 143° Southeast 301 346 7,900 -720 Descending New York TRACON
02:08PM 41.1833 -73.6667 151° Southeast 292 336 6,600 -1,380 Descending New York TRACON
02:09PM 41.1000 -73.6333 163° South 286 329 5,100 -1,260 Descending New York TRACON
02:10PM 41.0333 -73.6167 169° South 274 315 4,100 -600 Descending New York TRACON
02:11PM 40.9500 -73.6167 180° South 270 311 4,000  Descending New York TRACON
02:12PM 40.8833 -73.6333 191° South 265 305 4,100  Climbing New York TRACON
02:13PM 40.8167 -73.6667 201° Southwest 234 269 4,100 -60 Level New York TRACON
02:14PM 40.7833 -73.7167 229° Southwest 222 255 4,000  Descending New York TRACON
02:15PM 40.7833 -73.8000 270° West 246 283 4,100  Climbing New York TRACON
02:16PM 40.7833 -73.9000 270° West 236 272 4,100  Level New York TRACON
02:17PM 40.7667 -73.9667 252° West 212 244 4,100  Level New York TRACON
02:18PM 40.7167 -74.0000 207° Southwest 196 226 4,100 -180 Level New York TRACON
02:19PM 40.6833 -73.9833 159° South 213 245 3,800 -660 Descending New York TRACON
02:20PM 40.7167 -73.9333 49° Northeast 190 219 2,800 -1,200 Descending New York TRACON
02:21PM 40.7333 -73.8667 72° East 151 174 1,500 -1,080 Descending New York TRACON
02:22PM 40.7500 -73.8333 57° Northeast 139 160 800 -780 Descending New York TRACON